createdAt,value
2022-08-16T00:00:03.692Z,100093.44
2022-08-16T00:02:35.114Z,100088.19
2022-08-16T00:05:04.862Z,100090.44
2022-08-16T00:07:32.834Z,100081.75
2022-08-16T00:10:01.175Z,100089.22
2022-08-16T00:12:30.883Z,100082.25
2022-08-16T00:15:02.165Z,100089.22
2022-08-16T00:17:29.799Z,100074.66
2022-08-16T00:20:18.406Z,100072.34
2022-08-16T00:22:49.110Z,100080.09
2022-08-16T00:25:21.880Z,100071.66
2022-08-16T00:28:09.954Z,100074.91
2022-08-16T00:30:39.511Z,100071.56
2022-08-16T00:33:09.779Z,100080.84
2022-08-16T00:35:43.602Z,100089.75
2022-08-16T00:38:40.907Z,100098.97
2022-08-16T00:41:00.459Z,100089.47
2022-08-16T00:43:42.630Z,100086.88
2022-08-16T00:46:33.699Z,100092.16
2022-08-16T00:49:17.672Z,100084.41
2022-08-16T00:51:55.127Z,100083.97
2022-08-16T00:54:28.008Z,100082.50
2022-08-16T00:57:02.503Z,100085.94
2022-08-16T00:59:36.314Z,100089.50
2022-08-16T01:02:30.914Z,100082.94
2022-08-16T01:05:09.526Z,100095.34
2022-08-16T01:07:51.311Z,100111.41
2022-08-16T01:10:32.403Z,100104.59
2022-08-16T01:13:23.397Z,100096.47
2022-08-16T01:15:57.784Z,100107.72
2022-08-16T01:18:40.659Z,100107.13
2022-08-16T01:21:33.290Z,100110.03
2022-08-16T01:24:44.497Z,100108.31
2022-08-16T01:27:03.856Z,100122.13
2022-08-16T01:29:58.196Z,100112.78
2022-08-16T01:32:33.262Z,100113.31
2022-08-16T01:35:07.648Z,100109.16
2022-08-16T01:37:45.735Z,100116.78
2022-08-16T01:40:27.805Z,100116.19
2022-08-16T01:42:56.921Z,100121.16
2022-08-16T01:45:39.791Z,100122.84
2022-08-16T01:48:19.298Z,100122.72
2022-08-16T01:51:09.240Z,100135.03
2022-08-16T01:53:43.793Z,100133.97
2022-08-16T01:56:26.186Z,100134.25
2022-08-16T01:58:58.217Z,100148.06
2022-08-16T02:01:28.215Z,100157.44
2022-08-16T02:03:58.483Z,100158.56
2022-08-16T02:06:45.234Z,100162.81
2022-08-16T02:09:17.927Z,100167.25
2022-08-16T02:11:53.070Z,100170.13
2022-08-16T02:14:28.666Z,100167.69
2022-08-16T02:17:04.656Z,100168.09
2022-08-16T02:19:58.486Z,100165.56
2022-08-16T02:22:34.528Z,100177.25
2022-08-16T02:25:12.026Z,100180.56
2022-08-16T02:27:44.729Z,100172.22
2022-08-16T02:30:36.074Z,100178.69
2022-08-16T02:33:08.219Z,100181.28
2022-08-16T02:35:53.669Z,100187.16
2022-08-16T02:38:27.319Z,100188.88
2022-08-16T02:40:57.851Z,100183.97
2022-08-16T02:43:33.121Z,100190.31
2022-08-16T02:46:07.535Z,100188.00
2022-08-16T02:48:38.706Z,100183.16
2022-08-16T02:51:10.886Z,100193.56
2022-08-16T02:53:47.839Z,100197.13
2022-08-16T02:56:17.421Z,100205.50
2022-08-16T02:58:47.684Z,100206.44
2022-08-16T03:01:24.593Z,100211.16
2022-08-16T03:04:46.351Z,100209.44
2022-08-16T03:06:56.854Z,100204.91
2022-08-16T03:09:38.536Z,100199.19
2022-08-16T03:12:07.081Z,100210.44
2022-08-16T03:14:35.825Z,100210.28
2022-08-16T03:17:06.256Z,100195.09
2022-08-16T03:19:48.594Z,100209.44
2022-08-16T03:22:29.601Z,100201.53
2022-08-16T03:25:05.218Z,100207.25
2022-08-16T03:27:39.115Z,100216.28
2022-08-16T03:30:19.888Z,100212.97
2022-08-16T03:32:52.656Z,100218.94
2022-08-16T03:35:32.701Z,100218.22
2022-08-16T03:38:34.309Z,100215.22
2022-08-16T03:41:16.946Z,100218.91
2022-08-16T03:43:54.746Z,100221.25
2022-08-16T03:46:44.920Z,100211.31
2022-08-16T03:49:15.045Z,100225.31
2022-08-16T03:51:46.497Z,100203.38
2022-08-16T03:54:20.888Z,100211.75
2022-08-16T03:56:56.984Z,100217.09
2022-08-16T03:59:29.401Z,100223.47
2022-08-16T04:02:02.340Z,100222.75
2022-08-16T04:04:39.363Z,100218.50
2022-08-16T04:07:07.562Z,100220.66
2022-08-16T04:09:41.139Z,100218.22
2022-08-16T04:12:52.432Z,100214.72
2022-08-16T04:15:02.625Z,100212.00
2022-08-16T04:17:33.174Z,100207.81
2022-08-16T04:20:31.103Z,100206.63
2022-08-16T04:22:58.887Z,100211.47
2022-08-16T04:25:29.378Z,100208.50
2022-08-16T04:27:57.083Z,100200.81
2022-08-16T04:30:45.384Z,100215.72
2022-08-16T04:33:15.467Z,100205.41
2022-08-16T04:35:44.262Z,100204.53
2022-08-16T04:38:21.279Z,100208.28
2022-08-16T04:40:52.462Z,100218.75
2022-08-16T04:43:21.930Z,100215.06
2022-08-16T04:45:59.942Z,100222.78
2022-08-16T04:48:34.311Z,100222.94
2022-08-16T04:51:12.083Z,100228.09
2022-08-16T04:53:48.595Z,100229.44
2022-08-16T04:56:20.122Z,100232.13
2022-08-16T04:58:48.720Z,100230.31
2022-08-16T05:01:18.194Z,100224.53
2022-08-16T05:04:00.929Z,100229.63
2022-08-16T05:06:44.803Z,100219.16
2022-08-16T05:09:23.201Z,100228.72
2022-08-16T05:11:57.475Z,100230.22
2022-08-16T05:14:46.482Z,100239.50
2022-08-16T05:17:24.925Z,100227.13
2022-08-16T05:19:57.289Z,100234.69
2022-08-16T05:22:32.954Z,100227.00
2022-08-16T05:25:09.052Z,100219.59
2022-08-16T05:27:43.092Z,100229.38
2022-08-16T05:30:35.134Z,100237.28
2022-08-16T05:33:04.362Z,100252.97
2022-08-16T05:35:32.785Z,100258.22
2022-08-16T05:38:32.385Z,100257.81
2022-08-16T05:41:07.549Z,100254.63
2022-08-16T05:43:46.926Z,100249.63
2022-08-16T05:46:31.370Z,100252.38
2022-08-16T05:49:10.044Z,100251.06
2022-08-16T05:51:45.877Z,100252.06
2022-08-16T05:54:25.097Z,100255.47
2022-08-16T05:56:57.342Z,100244.03
2022-08-16T05:59:26.951Z,100260.16
2022-08-16T06:01:56.058Z,100261.03
2022-08-16T06:04:34.811Z,100270.41
2022-08-16T06:07:07.559Z,100273.50
2022-08-16T06:09:44.029Z,100269.72
2022-08-16T06:12:26.662Z,100283.53
2022-08-16T06:14:59.479Z,100267.50
2022-08-16T06:17:42.763Z,100286.25
2022-08-16T06:20:34.678Z,100282.34
2022-08-16T06:23:17.086Z,100280.28
2022-08-16T06:26:08.491Z,100285.06
2022-08-16T06:28:41.904Z,100283.00
2022-08-16T06:31:24.528Z,100281.28
2022-08-16T06:33:53.084Z,100285.84
2022-08-16T06:36:27.028Z,100282.22
2022-08-16T06:39:06.110Z,100294.53
2022-08-16T06:41:52.492Z,100298.81
2022-08-16T06:44:42.463Z,100306.13
2022-08-16T06:47:53.810Z,100315.16
2022-08-16T06:50:28.972Z,100317.63
2022-08-16T06:53:08.418Z,100322.84
2022-08-16T06:55:43.300Z,100319.88
2022-08-16T06:58:21.728Z,100316.34
2022-08-16T07:00:56.761Z,100324.56
2022-08-16T07:03:32.413Z,100332.59
2022-08-16T07:06:19.906Z,100328.78
2022-08-16T07:08:50.341Z,100334.09
2022-08-16T07:11:47.166Z,100327.84
2022-08-16T07:14:25.548Z,100325.06
2022-08-16T07:16:59.828Z,100329.00
2022-08-16T07:20:03.598Z,100318.19
2022-08-16T07:22:52.456Z,100335.44
2022-08-16T07:25:17.289Z,100336.19
2022-08-16T07:27:46.997Z,100344.13
2022-08-16T07:30:39.451Z,100352.75
2022-08-16T07:33:09.432Z,100343.00
2022-08-16T07:35:44.279Z,100352.75
2022-08-16T07:38:19.673Z,100357.91
2022-08-16T07:41:09.360Z,100366.00
2022-08-16T07:43:41.551Z,100355.22
2022-08-16T07:46:38.920Z,100367.78
2022-08-16T07:49:05.487Z,100359.88
2022-08-16T07:51:40.410Z,100364.16
2022-08-16T07:54:20.951Z,100367.34
2022-08-16T07:56:58.715Z,100369.56
2022-08-16T07:59:45.775Z,100369.06
2022-08-16T08:02:20.328Z,100369.44
2022-08-16T08:04:52.782Z,100374.41
2022-08-16T08:07:20.851Z,100366.03
2022-08-16T08:09:51.216Z,100366.03
2022-08-16T08:12:32.460Z,100376.84
2022-08-16T08:15:12.186Z,100371.63
2022-08-16T08:17:43.982Z,100367.78
2022-08-16T08:20:28.241Z,100386.66
2022-08-16T08:23:00.974Z,100384.88
2022-08-16T08:25:54.247Z,100380.66
2022-08-16T08:28:22.061Z,100393.69
2022-08-16T08:31:02.727Z,100386.31
2022-08-16T08:33:36.374Z,100381.72
2022-08-16T08:41:35.312Z,100375.50
2022-08-16T09:56:15.730Z,100395.94
2022-08-16T09:59:07.987Z,100390.28
2022-08-16T10:02:26.136Z,100390.22
2022-08-16T10:04:55.044Z,100391.22
2022-08-16T10:07:49.087Z,100380.19
2022-08-16T10:14:24.923Z,100386.13
2022-08-16T10:17:17.359Z,100388.81
2022-08-16T10:20:09.044Z,100387.66
2022-08-16T10:23:08.517Z,100380.66
2022-08-16T10:27:17.574Z,100386.72
2022-08-16T10:29:13.441Z,100379.19
2022-08-16T10:36:39.148Z,100391.94
2022-08-16T10:39:15.243Z,100374.94
2022-08-16T10:42:00.289Z,100383.75
2022-08-16T10:44:34.327Z,100379.88
2022-08-16T10:50:56.393Z,100384.84
2022-08-16T10:54:29.143Z,100374.03
2022-08-16T10:57:16.361Z,100380.09
2022-08-16T10:59:58.728Z,100380.44
2022-08-16T11:03:00.384Z,100386.00
2022-08-16T11:06:06.365Z,100385.84
2022-08-16T11:18:36.561Z,100371.50
2022-08-16T11:21:06.102Z,100381.97
2022-08-16T11:28:00.725Z,100385.13
2022-08-16T11:50:56.374Z,100376.88
2022-08-16T12:01:54.900Z,100368.31
2022-08-16T12:21:06.029Z,100355.59
2022-08-16T12:28:56.210Z,100366.13
2022-08-16T12:31:59.292Z,100347.00
2022-08-16T12:34:50.471Z,100352.28
2022-08-16T12:41:11.229Z,100360.75
2022-08-16T12:51:59.404Z,100350.44
2022-08-16T13:01:58.190Z,100328.25
2022-08-16T13:28:22.918Z,100319.91
2022-08-16T13:30:56.757Z,100321.03
2022-08-16T13:34:50.899Z,100319.19
2022-08-16T13:37:39.705Z,100312.41
2022-08-16T13:43:40.262Z,100316.91
2022-08-16T13:47:06.326Z,100317.91
2022-08-16T14:03:02.002Z,100297.50
2022-08-16T14:05:54.463Z,100305.78
2022-08-16T14:09:38.450Z,100308.03
2022-08-16T14:12:20.240Z,100296.31
2022-08-16T14:22:40.050Z,100292.19
2022-08-16T14:25:35.518Z,100286.19
2022-08-16T14:28:23.558Z,100299.44
2022-08-16T14:34:27.032Z,100293.63
2022-08-16T14:36:57.880Z,100284.16
2022-08-16T14:39:27.355Z,100286.38
2022-08-16T14:41:55.755Z,100292.91
2022-08-16T14:44:24.277Z,100292.63
2022-08-16T14:46:53.956Z,100284.50
2022-08-16T14:49:21.476Z,100294.88
2022-08-16T14:51:49.495Z,100278.94
2022-08-16T14:54:16.990Z,100285.19
2022-08-16T14:56:54.553Z,100279.50
2022-08-16T14:59:23.764Z,100281.19
2022-08-16T15:01:58.687Z,100276.63
2022-08-16T15:04:32.343Z,100265.38
2022-08-16T15:07:11.133Z,100265.38
2022-08-16T15:09:44.415Z,100264.06
2022-08-16T15:12:30.978Z,100273.34
2022-08-16T15:15:12.090Z,100270.94
2022-08-16T15:17:56.095Z,100260.50
2022-08-16T15:20:29.850Z,100275.13
2022-08-16T15:22:59.792Z,100270.97
2022-08-16T15:25:33.492Z,100265.34
2022-08-16T15:28:23.924Z,100273.72
2022-08-16T15:38:56.981Z,100262.56
2022-08-16T15:42:28.669Z,100269.06
2022-08-16T15:45:55.758Z,100268.47
2022-08-16T15:53:46.566Z,100262.94
2022-08-16T15:57:01.598Z,100267.34
2022-08-16T15:59:49.166Z,100263.00
2022-08-16T16:02:33.365Z,100268.22
2022-08-16T16:05:34.196Z,100254.25
2022-08-16T16:08:41.662Z,100248.53
2022-08-16T17:17:59.723Z,100256.13
2022-08-16T17:24:31.240Z,100252.53
2022-08-16T17:38:47.890Z,100243.25
2022-08-16T17:41:18.728Z,100258.19
2022-08-16T17:44:22.583Z,100262.72
2022-08-16T17:46:54.961Z,100248.41
2022-08-16T17:49:29.092Z,100256.41
2022-08-16T17:51:57.148Z,100255.59
2022-08-16T17:54:35.390Z,100255.31
2022-08-16T18:33:44.101Z,100289.66
2022-08-16T18:36:43.225Z,100283.78
2022-08-16T18:44:22.233Z,100285.88
2022-08-16T18:59:07.384Z,100301.75
2022-08-16T19:01:35.048Z,100309.06
2022-08-16T19:04:04.990Z,100300.91
2022-08-16T19:07:17.163Z,100303.16
2022-08-16T19:09:54.854Z,100308.84
2022-08-16T19:31:17.248Z,100350.66
2022-08-16T19:47:35.293Z,100353.59
2022-08-16T19:50:51.250Z,100363.13
2022-08-16T21:53:45.507Z,100450.44
2022-08-16T21:56:33.689Z,100459.34
2022-08-16T21:59:24.469Z,100459.06
